sensor_id;sensor_type;location;lat;lon;timestamp;temperature;humidity
26479;DHT22;14163;-26.142;27.992;2023-07-22T00:00:54;9.00;99.90
26479;DHT22;14163;-26.142;27.992;2023-07-22T00:03:25;9.20;99.90
26479;DHT22;14163;-26.142;27.992;2023-07-22T00:06:04;9.30;99.90
26479;DHT22;14163;-26.142;27.992;2023-07-22T00:08:34;9.20;99.90
26479;DHT22;14163;-26.142;27.992;2023-07-22T00:11:03;9.20;99.90
26479;DHT22;14163;-26.142;27.992;2023-07-22T00:13:33;9.30;99.90
26479;DHT22;14163;-26.142;27.992;2023-07-22T00:16:03;9.40;99.90
26479;DHT22;14163;-26.142;27.992;2023-07-22T00:18:36;9.60;99.90
26479;DHT22;14163;-26.142;27.992;2023-07-22T00:21:05;9.80;99.90
26479;DHT22;14163;-26.142;27.992;2023-07-22T00:23:35;9.90;99.90
26479;DHT22;14163;-26.142;27.992;2023-07-22T00:26:05;10.10;99.90
26479;DHT22;14163;-26.142;27.992;2023-07-22T00:28:36;10.00;99.90
26479;DHT22;14163;-26.142;27.992;2023-07-22T00:31:05;9.90;99.90
26479;DHT22;14163;-26.142;27.992;2023-07-22T00:33:37;9.70;99.90
26479;DHT22;14163;-26.142;27.992;2023-07-22T00:36:06;9.70;99.90
26479;DHT22;14163;-26.142;27.992;2023-07-22T00:38:35;9.70;99.90
26479;DHT22;14163;-26.142;27.992;2023-07-22T00:41:04;9.70;99.90
26479;DHT22;14163;-26.142;27.992;2023-07-22T00:43:34;9.80;99.90
26479;DHT22;14163;-26.142;27.992;2023-07-22T00:46:03;9.70;99.90
26479;DHT22;14163;-26.142;27.992;2023-07-22T00:48:32;9.80;99.90
26479;DHT22;14163;-26.142;27.992;2023-07-22T00:51:03;9.80;99.90
26479;DHT22;14163;-26.142;27.992;2023-07-22T00:53:33;9.80;99.90
26479;DHT22;14163;-26.142;27.992;2023-07-22T00:56:02;9.70;99.90
26479;DHT22;14163;-26.142;27.992;2023-07-22T00:58:33;9.70;99.90
26479;DHT22;14163;-26.142;27.992;2023-07-22T01:01:02;9.60;99.90
26479;DHT22;14163;-26.142;27.992;2023-07-22T01:03:31;9.70;99.90
26479;DHT22;14163;-26.142;27.992;2023-07-22T01:06:02;9.80;99.90
26479;DHT22;14163;-26.142;27.992;2023-07-22T01:08:32;9.70;99.90
26479;DHT22;14163;-26.142;27.992;2023-07-22T01:11:01;9.70;99.90
26479;DHT22;14163;-26.142;27.992;2023-07-22T01:13:32;9.60;99.90
26479;DHT22;14163;-26.142;27.992;2023-07-22T01:16:02;9.70;99.90
26479;DHT22;14163;-26.142;27.992;2023-07-22T01:18:32;9.50;99.90
26479;DHT22;14163;-26.142;27.992;2023-07-22T01:21:04;9.40;99.90
26479;DHT22;14163;-26.142;27.992;2023-07-22T01:23:37;9.40;99.90
26479;DHT22;14163;-26.142;27.992;2023-07-22T01:26:07;9.30;99.90
26479;DHT22;14163;-26.142;27.992;2023-07-22T01:28:36;9.40;99.90
26479;DHT22;14163;-26.142;27.992;2023-07-22T01:31:06;9.40;99.90
26479;DHT22;14163;-26.142;27.992;2023-07-22T01:33:35;9.40;99.90
26479;DHT22;14163;-26.142;27.992;2023-07-22T01:36:05;9.40;99.90
26479;DHT22;14163;-26.142;27.992;2023-07-22T01:38:36;9.30;99.90
26479;DHT22;14163;-26.142;27.992;2023-07-22T01:41:06;9.20;99.90
26479;DHT22;14163;-26.142;27.992;2023-07-22T01:43:36;9.20;99.90
26479;DHT22;14163;-26.142;27.992;2023-07-22T01:46:05;9.20;99.90
26479;DHT22;14163;-26.142;27.992;2023-07-22T01:48:34;9.20;99.90
26479;DHT22;14163;-26.142;27.992;2023-07-22T01:51:04;9.30;99.90
26479;DHT22;14163;-26.142;27.992;2023-07-22T01:53:35;9.20;99.90
26479;DHT22;14163;-26.142;27.992;2023-07-22T01:56:04;9.20;99.90
26479;DHT22;14163;-26.142;27.992;2023-07-22T01:58:34;9.10;99.90
26479;DHT22;14163;-26.142;27.992;2023-07-22T02:01:03;9.10;99.90
26479;DHT22;14163;-26.142;27.992;2023-07-22T02:03:33;9.10;99.90
26479;DHT22;14163;-26.142;27.992;2023-07-22T02:06:03;9.20;99.90
26479;DHT22;14163;-26.142;27.992;2023-07-22T02:08:32;9.20;99.90
26479;DHT22;14163;-26.142;27.992;2023-07-22T02:11:06;9.30;99.90
26479;DHT22;14163;-26.142;27.992;2023-07-22T02:13:36;9.30;99.90
26479;DHT22;14163;-26.142;27.992;2023-07-22T02:16:05;9.40;99.90
26479;DHT22;14163;-26.142;27.992;2023-07-22T02:18:38;9.50;99.90
26479;DHT22;14163;-26.142;27.992;2023-07-22T02:21:07;9.60;99.90
26479;DHT22;14163;-26.142;27.992;2023-07-22T02:23:36;9.50;99.90
26479;DHT22;14163;-26.142;27.992;2023-07-22T02:26:07;9.40;99.90
26479;DHT22;14163;-26.142;27.992;2023-07-22T02:28:37;9.30;99.90
26479;DHT22;14163;-26.142;27.992;2023-07-22T02:31:07;9.30;99.90
26479;DHT22;14163;-26.142;27.992;2023-07-22T02:33:36;9.40;99.90
26479;DHT22;14163;-26.142;27.992;2023-07-22T02:36:06;9.40;99.90
26479;DHT22;14163;-26.142;27.992;2023-07-22T02:38:35;9.40;99.90
26479;DHT22;14163;-26.142;27.992;2023-07-22T02:41:06;9.40;99.90
26479;DHT22;14163;-26.142;27.992;2023-07-22T02:43:35;9.30;99.90
26479;DHT22;14163;-26.142;27.992;2023-07-22T02:46:05;9.40;99.90
26479;DHT22;14163;-26.142;27.992;2023-07-22T02:48:34;9.30;99.90
26479;DHT22;14163;-26.142;27.992;2023-07-22T02:51:05;9.30;99.90
26479;DHT22;14163;-26.142;27.992;2023-07-22T02:53:34;9.40;99.90
26479;DHT22;14163;-26.142;27.992;2023-07-22T02:56:07;9.30;99.90
26479;DHT22;14163;-26.142;27.992;2023-07-22T02:58:38;9.40;99.90
26479;DHT22;14163;-26.142;27.992;2023-07-22T03:01:09;9.30;99.90
26479;DHT22;14163;-26.142;27.992;2023-07-22T03:03:38;9.40;99.90
26479;DHT22;14163;-26.142;27.992;2023-07-22T03:06:07;9.50;99.90
26479;DHT22;14163;-26.142;27.992;2023-07-22T03:08:37;9.50;99.90
26479;DHT22;14163;-26.142;27.992;2023-07-22T03:11:08;9.60;99.90
26479;DHT22;14163;-26.142;27.992;2023-07-22T03:13:38;9.70;99.90
26479;DHT22;14163;-26.142;27.992;2023-07-22T03:16:08;9.60;99.90
26479;DHT22;14163;-26.142;27.992;2023-07-22T03:18:38;9.40;99.90
26479;DHT22;14163;-26.142;27.992;2023-07-22T03:21:08;9.40;99.90
26479;DHT22;14163;-26.142;27.992;2023-07-22T03:23:38;9.30;99.90
26479;DHT22;14163;-26.142;27.992;2023-07-22T03:26:09;9.30;99.90
26479;DHT22;14163;-26.142;27.992;2023-07-22T03:28:38;9.10;99.90
26479;DHT22;14163;-26.142;27.992;2023-07-22T03:31:08;9.00;99.90
26479;DHT22;14163;-26.142;27.992;2023-07-22T03:33:38;9.00;99.90
26479;DHT22;14163;-26.142;27.992;2023-07-22T03:36:09;9.00;99.90
26479;DHT22;14163;-26.142;27.992;2023-07-22T03:38:39;8.90;99.90
26479;DHT22;14163;-26.142;27.992;2023-07-22T03:41:10;9.00;99.90
26479;DHT22;14163;-26.142;27.992;2023-07-22T03:43:39;9.10;99.90
26479;DHT22;14163;-26.142;27.992;2023-07-22T03:46:10;9.20;99.90
26479;DHT22;14163;-26.142;27.992;2023-07-22T03:48:39;9.30;99.90
26479;DHT22;14163;-26.142;27.992;2023-07-22T03:51:08;9.30;99.90
26479;DHT22;14163;-26.142;27.992;2023-07-22T03:53:37;9.60;99.90
26479;DHT22;14163;-26.142;27.992;2023-07-22T03:56:07;9.70;99.90
26479;DHT22;14163;-26.142;27.992;2023-07-22T03:58:37;9.70;99.90
26479;DHT22;14163;-26.142;27.992;2023-07-22T04:01:07;9.60;99.90
26479;DHT22;14163;-26.142;27.992;2023-07-22T04:03:39;9.40;99.90
26479;DHT22;14163;-26.142;27.992;2023-07-22T04:06:08;9.40;99.90
26479;DHT22;14163;-26.142;27.992;2023-07-22T04:08:37;9.40;99.90
26479;DHT22;14163;-26.142;27.992;2023-07-22T04:11:07;9.40;99.90
26479;DHT22;14163;-26.142;27.992;2023-07-22T04:13:38;9.40;99.90
26479;DHT22;14163;-26.142;27.992;2023-07-22T04:16:07;9.20;99.90
26479;DHT22;14163;-26.142;27.992;2023-07-22T04:18:36;9.20;99.90
26479;DHT22;14163;-26.142;27.992;2023-07-22T04:21:05;9.20;99.90
26479;DHT22;14163;-26.142;27.992;2023-07-22T04:23:34;9.20;99.90
26479;DHT22;14163;-26.142;27.992;2023-07-22T04:26:04;9.40;99.90
26479;DHT22;14163;-26.142;27.992;2023-07-22T04:28:36;9.50;99.90
26479;DHT22;14163;-26.142;27.992;2023-07-22T04:31:06;9.60;99.90
26479;DHT22;14163;-26.142;27.992;2023-07-22T04:33:36;9.60;99.90
26479;DHT22;14163;-26.142;27.992;2023-07-22T04:36:05;9.50;99.90
26479;DHT22;14163;-26.142;27.992;2023-07-22T04:38:34;9.50;99.90
26479;DHT22;14163;-26.142;27.992;2023-07-22T04:41:04;9.60;99.90
26479;DHT22;14163;-26.142;27.992;2023-07-22T04:43:33;9.80;99.90
26479;DHT22;14163;-26.142;27.992;2023-07-22T04:46:04;9.90;99.90
26479;DHT22;14163;-26.142;27.992;2023-07-22T04:48:35;9.90;99.90
26479;DHT22;14163;-26.142;27.992;2023-07-22T04:51:05;9.90;99.90
26479;DHT22;14163;-26.142;27.992;2023-07-22T04:53:35;9.90;99.90
26479;DHT22;14163;-26.142;27.992;2023-07-22T04:56:04;9.90;99.90
26479;DHT22;14163;-26.142;27.992;2023-07-22T04:58:34;9.90;99.90
26479;DHT22;14163;-26.142;27.992;2023-07-22T05:01:06;9.90;99.90
26479;DHT22;14163;-26.142;27.992;2023-07-22T05:03:35;9.80;99.90
26479;DHT22;14163;-26.142;27.992;2023-07-22T05:06:04;9.80;99.90
26479;DHT22;14163;-26.142;27.992;2023-07-22T05:08:35;9.90;99.90
26479;DHT22;14163;-26.142;27.992;2023-07-22T05:11:06;9.80;99.90
26479;DHT22;14163;-26.142;27.992;2023-07-22T05:13:36;9.90;99.90
26479;DHT22;14163;-26.142;27.992;2023-07-22T05:16:08;10.00;99.90
26479;DHT22;14163;-26.142;27.992;2023-07-22T05:18:38;10.00;99.90
26479;DHT22;14163;-26.142;27.992;2023-07-22T05:21:08;10.00;99.90
26479;DHT22;14163;-26.142;27.992;2023-07-22T05:23:38;10.10;99.90
26479;DHT22;14163;-26.142;27.992;2023-07-22T05:26:08;10.00;99.90
26479;DHT22;14163;-26.142;27.992;2023-07-22T05:28:37;10.00;99.90
26479;DHT22;14163;-26.142;27.992;2023-07-22T05:31:08;10.00;99.90
26479;DHT22;14163;-26.142;27.992;2023-07-22T05:33:37;9.90;99.90
26479;DHT22;14163;-26.142;27.992;2023-07-22T05:36:06;9.70;99.90
26479;DHT22;14163;-26.142;27.992;2023-07-22T05:38:36;9.80;99.90
26479;DHT22;14163;-26.142;27.992;2023-07-22T05:41:05;9.90;99.90
26479;DHT22;14163;-26.142;27.992;2023-07-22T05:43:35;9.80;99.90
26479;DHT22;14163;-26.142;27.992;2023-07-22T05:46:05;9.80;99.90
26479;DHT22;14163;-26.142;27.992;2023-07-22T05:48:36;9.90;99.90
26479;DHT22;14163;-26.142;27.992;2023-07-22T05:51:05;9.90;99.90
26479;DHT22;14163;-26.142;27.992;2023-07-22T05:53:34;9.90;99.90
26479;DHT22;14163;-26.142;27.992;2023-07-22T05:56:04;9.90;99.90
26479;DHT22;14163;-26.142;27.992;2023-07-22T05:58:33;9.90;99.90
26479;DHT22;14163;-26.142;27.992;2023-07-22T06:01:02;10.10;99.90
26479;DHT22;14163;-26.142;27.992;2023-07-22T08:11:39;8.20;99.90
26479;DHT22;14163;-26.142;27.992;2023-07-22T08:14:09;8.60;99.90
26479;DHT22;14163;-26.142;27.992;2023-07-22T08:16:38;9.20;99.90
26479;DHT22;14163;-26.142;27.992;2023-07-22T08:19:09;9.80;99.90
26479;DHT22;14163;-26.142;27.992;2023-07-22T08:21:39;10.20;99.90
26479;DHT22;14163;-26.142;27.992;2023-07-22T08:24:09;10.50;99.90
26479;DHT22;14163;-26.142;27.992;2023-07-22T08:26:41;10.80;99.90
26479;DHT22;14163;-26.142;27.992;2023-07-22T08:29:14;11.30;99.90
26479;DHT22;14163;-26.142;27.992;2023-07-22T08:31:44;11.50;99.90
26479;DHT22;14163;-26.142;27.992;2023-07-22T08:34:14;11.60;99.90
26479;DHT22;14163;-26.142;27.992;2023-07-22T08:36:44;11.60;99.90
26479;DHT22;14163;-26.142;27.992;2023-07-22T08:39:16;11.70;99.90
26479;DHT22;14163;-26.142;27.992;2023-07-22T08:41:49;11.70;99.90
26479;DHT22;14163;-26.142;27.992;2023-07-22T08:44:20;11.70;99.90
26479;DHT22;14163;-26.142;27.992;2023-07-22T08:46:51;12.00;99.90
26479;DHT22;14163;-26.142;27.992;2023-07-22T08:49:25;12.30;99.90
26479;DHT22;14163;-26.142;27.992;2023-07-22T08:51:56;12.60;99.90
26479;DHT22;14163;-26.142;27.992;2023-07-22T08:54:25;12.70;99.90
26479;DHT22;14163;-26.142;27.992;2023-07-22T08:56:57;12.50;99.90
26479;DHT22;14163;-26.142;27.992;2023-07-22T08:59:27;12.50;99.90
26479;DHT22;14163;-26.142;27.992;2023-07-22T09:01:56;12.50;99.90
26479;DHT22;14163;-26.142;27.992;2023-07-22T09:04:26;12.50;99.90
26479;DHT22;14163;-26.142;27.992;2023-07-22T09:06:55;12.60;99.90
26479;DHT22;14163;-26.142;27.992;2023-07-22T09:09:25;12.70;99.90
26479;DHT22;14163;-26.142;27.992;2023-07-22T09:11:57;12.70;99.90
26479;DHT22;14163;-26.142;27.992;2023-07-22T09:14:27;12.80;99.90
26479;DHT22;14163;-26.142;27.992;2023-07-22T09:16:57;13.00;99.90
26479;DHT22;14163;-26.142;27.992;2023-07-22T09:19:26;13.00;99.90
26479;DHT22;14163;-26.142;27.992;2023-07-22T09:21:56;13.10;99.90
26479;DHT22;14163;-26.142;27.992;2023-07-22T09:24:27;13.40;99.90
26479;DHT22;14163;-26.142;27.992;2023-07-22T09:26:59;13.50;99.90
26479;DHT22;14163;-26.142;27.992;2023-07-22T09:29:35;13.60;99.90
26479;DHT22;14163;-26.142;27.992;2023-07-22T09:32:07;13.70;99.90
26479;DHT22;14163;-26.142;27.992;2023-07-22T09:34:36;13.80;99.90
26479;DHT22;14163;-26.142;27.992;2023-07-22T09:37:06;14.10;99.90
26479;DHT22;14163;-26.142;27.992;2023-07-22T09:39:35;14.40;99.90
26479;DHT22;14163;-26.142;27.992;2023-07-22T09:42:07;14.60;99.90
26479;DHT22;14163;-26.142;27.992;2023-07-22T09:44:36;14.80;99.90
26479;DHT22;14163;-26.142;27.992;2023-07-22T09:47:07;14.90;99.90
26479;DHT22;14163;-26.142;27.992;2023-07-22T09:49:40;14.90;99.90
26479;DHT22;14163;-26.142;27.992;2023-07-22T09:52:11;15.00;99.90
26479;DHT22;14163;-26.142;27.992;2023-07-22T09:54:48;15.10;99.90
26479;DHT22;14163;-26.142;27.992;2023-07-22T09:57:21;15.20;99.90
26479;DHT22;14163;-26.142;27.992;2023-07-22T09:59:52;15.10;99.90
26479;DHT22;14163;-26.142;27.992;2023-07-22T10:02:22;15.10;99.90
26479;DHT22;14163;-26.142;27.992;2023-07-22T10:04:53;15.30;99.90
26479;DHT22;14163;-26.142;27.992;2023-07-22T10:07:24;15.80;99.90
26479;DHT22;14163;-26.142;27.992;2023-07-22T10:09:55;16.20;99.90
26479;DHT22;14163;-26.142;27.992;2023-07-22T10:12:27;16.80;99.90
26479;DHT22;14163;-26.142;27.992;2023-07-22T10:14:57;17.20;99.90
26479;DHT22;14163;-26.142;27.992;2023-07-22T10:17:28;17.40;99.90
26479;DHT22;14163;-26.142;27.992;2023-07-22T10:19:58;17.60;99.90
26479;DHT22;14163;-26.142;27.992;2023-07-22T10:22:29;17.60;99.90
26479;DHT22;14163;-26.142;27.992;2023-07-22T10:24:59;17.90;99.90
26479;DHT22;14163;-26.142;27.992;2023-07-22T10:27:56;18.30;99.90
26479;DHT22;14163;-26.142;27.992;2023-07-22T10:30:26;18.50;99.90
26479;DHT22;14163;-26.142;27.992;2023-07-22T10:32:56;18.70;99.90
26479;DHT22;14163;-26.142;27.992;2023-07-22T10:35:41;18.70;99.90
26479;DHT22;14163;-26.142;27.992;2023-07-22T10:38:12;18.70;99.90
26479;DHT22;14163;-26.142;27.992;2023-07-22T10:40:48;19.00;99.90
26479;DHT22;14163;-26.142;27.992;2023-07-22T10:43:26;18.90;99.90
26479;DHT22;14163;-26.142;27.992;2023-07-22T10:45:57;19.10;99.90
26479;DHT22;14163;-26.142;27.992;2023-07-22T10:48:27;19.20;99.90
26479;DHT22;14163;-26.142;27.992;2023-07-22T10:51:04;19.00;99.90
26479;DHT22;14163;-26.142;27.992;2023-07-22T10:53:40;18.90;99.90
26479;DHT22;14163;-26.142;27.992;2023-07-22T10:56:16;19.30;99.90
26479;DHT22;14163;-26.142;27.992;2023-07-22T10:59:02;19.60;99.90
26479;DHT22;14163;-26.142;27.992;2023-07-22T11:01:36;19.80;99.90
26479;DHT22;14163;-26.142;27.992;2023-07-22T11:04:21;20.10;99.90
26479;DHT22;14163;-26.142;27.992;2023-07-22T11:06:59;20.20;99.90
26479;DHT22;14163;-26.142;27.992;2023-07-22T11:09:40;20.40;99.90
26479;DHT22;14163;-26.142;27.992;2023-07-22T11:12:17;20.40;99.90
26479;DHT22;14163;-26.142;27.992;2023-07-22T11:14:51;20.40;99.90
26479;DHT22;14163;-26.142;27.992;2023-07-22T11:17:28;20.20;99.90
26479;DHT22;14163;-26.142;27.992;2023-07-22T11:19:59;20.10;99.90
26479;DHT22;14163;-26.142;27.992;2023-07-22T11:22:28;20.20;99.90
26479;DHT22;14163;-26.142;27.992;2023-07-22T11:24:58;20.30;99.90
26479;DHT22;14163;-26.142;27.992;2023-07-22T11:27:27;20.40;99.90
26479;DHT22;14163;-26.142;27.992;2023-07-22T11:30:00;20.40;99.90
26479;DHT22;14163;-26.142;27.992;2023-07-22T11:32:31;20.40;99.90
26479;DHT22;14163;-26.142;27.992;2023-07-22T11:35:01;20.10;99.90
26479;DHT22;14163;-26.142;27.992;2023-07-22T11:37:30;20.10;99.90
26479;DHT22;14163;-26.142;27.992;2023-07-22T11:40:00;19.80;99.90
26479;DHT22;14163;-26.142;27.992;2023-07-22T11:42:30;19.80;99.90
26479;DHT22;14163;-26.142;27.992;2023-07-22T11:45:04;19.80;99.90
26479;DHT22;14163;-26.142;27.992;2023-07-22T11:47:34;19.60;99.90
26479;DHT22;14163;-26.142;27.992;2023-07-22T11:50:04;19.50;99.90
26479;DHT22;14163;-26.142;27.992;2023-07-22T11:52:33;19.50;99.90
26479;DHT22;14163;-26.142;27.992;2023-07-22T11:55:03;19.70;99.90
26479;DHT22;14163;-26.142;27.992;2023-07-22T11:57:32;19.70;99.90
26479;DHT22;14163;-26.142;27.992;2023-07-22T12:00:04;19.60;99.90
26479;DHT22;14163;-26.142;27.992;2023-07-22T12:02:37;19.50;99.90
26479;DHT22;14163;-26.142;27.992;2023-07-22T12:05:07;19.50;99.90
26479;DHT22;14163;-26.142;27.992;2023-07-22T12:07:38;19.60;99.90
26479;DHT22;14163;-26.142;27.992;2023-07-22T12:10:09;19.90;99.90
26479;DHT22;14163;-26.142;27.992;2023-07-22T12:12:41;20.00;99.90
26479;DHT22;14163;-26.142;27.992;2023-07-22T12:15:14;19.90;99.90
26479;DHT22;14163;-26.142;27.992;2023-07-22T12:17:48;19.90;99.90
26479;DHT22;14163;-26.142;27.992;2023-07-22T12:20:18;19.50;99.90
26479;DHT22;14163;-26.142;27.992;2023-07-22T12:22:48;19.30;99.90
26479;DHT22;14163;-26.142;27.992;2023-07-22T12:25:19;19.30;99.90
26479;DHT22;14163;-26.142;27.992;2023-07-22T12:27:48;19.20;99.90
26479;DHT22;14163;-26.142;27.992;2023-07-22T12:30:20;19.50;99.90
26479;DHT22;14163;-26.142;27.992;2023-07-22T12:32:50;19.60;99.90
26479;DHT22;14163;-26.142;27.992;2023-07-22T12:35:20;19.60;99.90
26479;DHT22;14163;-26.142;27.992;2023-07-22T12:37:50;19.50;99.90
26479;DHT22;14163;-26.142;27.992;2023-07-22T12:40:19;19.50;99.90
26479;DHT22;14163;-26.142;27.992;2023-07-22T12:42:50;19.60;99.90
26479;DHT22;14163;-26.142;27.992;2023-07-22T12:45:22;19.40;99.90
26479;DHT22;14163;-26.142;27.992;2023-07-22T12:47:51;19.20;99.90
26479;DHT22;14163;-26.142;27.992;2023-07-22T12:50:21;19.30;99.90
26479;DHT22;14163;-26.142;27.992;2023-07-22T12:52:51;19.40;99.90
26479;DHT22;14163;-26.142;27.992;2023-07-22T12:55:21;19.50;99.90
26479;DHT22;14163;-26.142;27.992;2023-07-22T12:57:50;19.50;99.90
26479;DHT22;14163;-26.142;27.992;2023-07-22T13:00:22;19.60;99.90
26479;DHT22;14163;-26.142;27.992;2023-07-22T13:02:52;19.60;99.90
26479;DHT22;14163;-26.142;27.992;2023-07-22T13:05:21;19.70;99.90
26479;DHT22;14163;-26.142;27.992;2023-07-22T13:07:51;19.60;99.90
26479;DHT22;14163;-26.142;27.992;2023-07-22T13:10:22;19.70;99.90
26479;DHT22;14163;-26.142;27.992;2023-07-22T13:12:53;19.70;99.90
26479;DHT22;14163;-26.142;27.992;2023-07-22T13:15:26;19.90;99.90
26479;DHT22;14163;-26.142;27.992;2023-07-22T13:17:58;19.90;99.90
26479;DHT22;14163;-26.142;27.992;2023-07-22T13:20:29;19.80;99.90
26479;DHT22;14163;-26.142;27.992;2023-07-22T13:22:59;19.70;99.90
26479;DHT22;14163;-26.142;27.992;2023-07-22T13:25:29;19.70;99.90
26479;DHT22;14163;-26.142;27.992;2023-07-22T13:27:59;19.80;99.90
26479;DHT22;14163;-26.142;27.992;2023-07-22T13:30:30;19.80;99.90
26479;DHT22;14163;-26.142;27.992;2023-07-22T13:33:00;19.80;99.90
26479;DHT22;14163;-26.142;27.992;2023-07-22T13:35:29;19.90;99.90
26479;DHT22;14163;-26.142;27.992;2023-07-22T13:37:59;19.90;99.90
26479;DHT22;14163;-26.142;27.992;2023-07-22T13:40:28;19.90;99.90
26479;DHT22;14163;-26.142;27.992;2023-07-22T13:42:59;19.80;99.90
26479;DHT22;14163;-26.142;27.992;2023-07-22T13:45:30;19.80;99.90
26479;DHT22;14163;-26.142;27.992;2023-07-22T13:47:59;19.70;99.90
26479;DHT22;14163;-26.142;27.992;2023-07-22T13:50:28;19.70;99.90
26479;DHT22;14163;-26.142;27.992;2023-07-22T13:52:57;19.70;99.90
26479;DHT22;14163;-26.142;27.992;2023-07-22T13:55:27;19.80;99.90
26479;DHT22;14163;-26.142;27.992;2023-07-22T13:57:56;19.70;99.90
26479;DHT22;14163;-26.142;27.992;2023-07-22T14:00:26;19.60;99.90
26479;DHT22;14163;-26.142;27.992;2023-07-22T16:10:40;15.10;99.90
26479;DHT22;14163;-26.142;27.992;2023-07-22T16:13:09;13.80;99.90
26479;DHT22;14163;-26.142;27.992;2023-07-22T16:15:39;14.30;99.90
26479;DHT22;14163;-26.142;27.992;2023-07-22T16:18:09;14.90;99.90
26479;DHT22;14163;-26.142;27.992;2023-07-22T16:20:39;15.50;99.90
26479;DHT22;14163;-26.142;27.992;2023-07-22T16:23:08;15.90;99.90
26479;DHT22;14163;-26.142;27.992;2023-07-22T16:25:40;16.30;99.90
26479;DHT22;14163;-26.142;27.992;2023-07-22T16:28:10;16.50;99.90
26479;DHT22;14163;-26.142;27.992;2023-07-22T16:30:42;16.70;99.90
26479;DHT22;14163;-26.142;27.992;2023-07-22T16:33:12;16.80;99.90
26479;DHT22;14163;-26.142;27.992;2023-07-22T16:35:42;17.00;99.90
26479;DHT22;14163;-26.142;27.992;2023-07-22T16:38:12;17.10;99.90
26479;DHT22;14163;-26.142;27.992;2023-07-22T16:40:43;17.20;99.90
26479;DHT22;14163;-26.142;27.992;2023-07-22T16:43:12;17.20;99.90
26479;DHT22;14163;-26.142;27.992;2023-07-22T16:45:41;17.40;99.90
26479;DHT22;14163;-26.142;27.992;2023-07-22T16:48:11;17.40;99.90
26479;DHT22;14163;-26.142;27.992;2023-07-22T16:50:40;17.30;99.90
26479;DHT22;14163;-26.142;27.992;2023-07-22T16:53:10;17.30;99.90
26479;DHT22;14163;-26.142;27.992;2023-07-22T16:55:40;17.20;99.90
26479;DHT22;14163;-26.142;27.992;2023-07-22T16:58:11;17.10;99.90
26479;DHT22;14163;-26.142;27.992;2023-07-22T17:00:40;17.00;99.90
26479;DHT22;14163;-26.142;27.992;2023-07-22T17:03:09;17.00;99.90
26479;DHT22;14163;-26.142;27.992;2023-07-22T17:05:39;17.00;99.90
26479;DHT22;14163;-26.142;27.992;2023-07-22T17:08:08;17.10;99.90
26479;DHT22;14163;-26.142;27.992;2023-07-22T17:10:37;17.20;99.90
26479;DHT22;14163;-26.142;27.992;2023-07-22T17:13:06;17.20;99.90
26479;DHT22;14163;-26.142;27.992;2023-07-22T17:15:38;17.40;99.90
26479;DHT22;14163;-26.142;27.992;2023-07-22T17:18:08;17.50;99.90
26479;DHT22;14163;-26.142;27.992;2023-07-22T17:20:38;17.50;99.90
26479;DHT22;14163;-26.142;27.992;2023-07-22T17:23:07;17.60;99.90
26479;DHT22;14163;-26.142;27.992;2023-07-22T17:25:38;17.70;99.90
26479;DHT22;14163;-26.142;27.992;2023-07-22T17:28:09;17.60;99.90
26479;DHT22;14163;-26.142;27.992;2023-07-22T17:30:41;17.60;99.90
26479;DHT22;14163;-26.142;27.992;2023-07-22T17:33:10;17.60;99.90
26479;DHT22;14163;-26.142;27.992;2023-07-22T17:35:40;17.60;99.90
26479;DHT22;14163;-26.142;27.992;2023-07-22T17:38:10;17.60;99.90
26479;DHT22;14163;-26.142;27.992;2023-07-22T17:40:40;17.50;99.90
26479;DHT22;14163;-26.142;27.992;2023-07-22T17:43:11;17.60;99.90
26479;DHT22;14163;-26.142;27.992;2023-07-22T17:45:44;17.50;99.90
26479;DHT22;14163;-26.142;27.992;2023-07-22T17:48:14;17.40;99.90
26479;DHT22;14163;-26.142;27.992;2023-07-22T17:50:54;17.20;99.90
26479;DHT22;14163;-26.142;27.992;2023-07-22T17:53:24;17.20;99.90
26479;DHT22;14163;-26.142;27.992;2023-07-22T17:55:55;17.00;99.90
26479;DHT22;14163;-26.142;27.992;2023-07-22T17:58:26;16.90;99.90
26479;DHT22;14163;-26.142;27.992;2023-07-22T18:00:58;16.80;99.90
26479;DHT22;14163;-26.142;27.992;2023-07-22T18:03:29;16.70;99.90
26479;DHT22;14163;-26.142;27.992;2023-07-22T18:06:04;16.50;99.90
26479;DHT22;14163;-26.142;27.992;2023-07-22T18:08:35;16.30;99.90
26479;DHT22;14163;-26.142;27.992;2023-07-22T18:11:05;16.20;99.90
26479;DHT22;14163;-26.142;27.992;2023-07-22T18:13:35;16.10;99.90
26479;DHT22;14163;-26.142;27.992;2023-07-22T18:16:07;15.90;99.90
26479;DHT22;14163;-26.142;27.992;2023-07-22T18:18:38;15.90;99.90
26479;DHT22;14163;-26.142;27.992;2023-07-22T18:21:09;16.00;99.90
26479;DHT22;14163;-26.142;27.992;2023-07-22T18:23:40;16.00;99.90
26479;DHT22;14163;-26.142;27.992;2023-07-22T18:26:09;16.00;99.90
26479;DHT22;14163;-26.142;27.992;2023-07-22T18:28:40;16.10;99.90
26479;DHT22;14163;-26.142;27.992;2023-07-22T18:31:10;16.10;99.90
26479;DHT22;14163;-26.142;27.992;2023-07-22T18:33:40;16.00;99.90
26479;DHT22;14163;-26.142;27.992;2023-07-22T18:36:15;15.90;99.90
26479;DHT22;14163;-26.142;27.992;2023-07-22T18:38:44;15.80;99.90
26479;DHT22;14163;-26.142;27.992;2023-07-22T18:41:15;15.80;99.90
26479;DHT22;14163;-26.142;27.992;2023-07-22T18:43:44;15.70;99.90
26479;DHT22;14163;-26.142;27.992;2023-07-22T18:46:20;15.70;99.90
26479;DHT22;14163;-26.142;27.992;2023-07-22T18:48:56;15.70;99.90
26479;DHT22;14163;-26.142;27.992;2023-07-22T18:51:25;15.70;99.90
26479;DHT22;14163;-26.142;27.992;2023-07-22T18:54:00;15.70;99.90
26479;DHT22;14163;-26.142;27.992;2023-07-22T18:56:34;15.60;99.90
26479;DHT22;14163;-26.142;27.992;2023-07-22T18:59:04;15.60;99.90
26479;DHT22;14163;-26.142;27.992;2023-07-22T19:01:36;15.60;99.90
26479;DHT22;14163;-26.142;27.992;2023-07-22T19:04:06;15.40;99.90
26479;DHT22;14163;-26.142;27.992;2023-07-22T19:06:36;15.10;99.90
26479;DHT22;14163;-26.142;27.992;2023-07-22T19:09:06;14.90;99.90
26479;DHT22;14163;-26.142;27.992;2023-07-22T19:11:35;14.80;99.90
26479;DHT22;14163;-26.142;27.992;2023-07-22T19:14:12;14.60;99.90
26479;DHT22;14163;-26.142;27.992;2023-07-22T19:16:55;14.70;99.90
26479;DHT22;14163;-26.142;27.992;2023-07-22T19:19:25;14.60;99.90
26479;DHT22;14163;-26.142;27.992;2023-07-22T19:21:55;14.70;99.90
26479;DHT22;14163;-26.142;27.992;2023-07-22T19:24:28;14.70;99.90
26479;DHT22;14163;-26.142;27.992;2023-07-22T19:27:01;14.80;99.90
26479;DHT22;14163;-26.142;27.992;2023-07-22T19:29:32;14.90;99.90
26479;DHT22;14163;-26.142;27.992;2023-07-22T19:32:06;15.00;99.90
26479;DHT22;14163;-26.142;27.992;2023-07-22T19:34:37;14.80;99.90
26479;DHT22;14163;-26.142;27.992;2023-07-22T19:37:07;14.90;99.90
26479;DHT22;14163;-26.142;27.992;2023-07-22T19:39:39;15.10;99.90
26479;DHT22;14163;-26.142;27.992;2023-07-22T19:42:10;15.20;99.90
26479;DHT22;14163;-26.142;27.992;2023-07-22T19:44:40;15.30;99.90